Time;durP1;ratioP1;P1;durP2;ratioP2;P2;SDS_P1;SDS_P2;PMS_P1;PMS_P2;Temp;Humidity;BMP_temperature;BMP_pressure;BME280_temperature;BME280_humidity;BME280_pressure;Samples;Min_cycle;Max_cycle;Signal;HPM_P1;HPM_P2
2022/07/17 00:00:42;;;;;;;;;;;;;;;17.73;60.64;100813.63;5107270;28;2229;-94
2022/07/17 00:03:09;;;;;;;;;;;;;;;17.73;60.53;100815.53;5107915;28;2297;-95
2022/07/17 00:05:35;;;;;;;;;;;;;;;17.72;60.63;100822.91;5106430;28;2141;-95
2022/07/17 00:08:02;;;;;;;;;;;;;;;17.70;60.52;100828.59;5092207;28;2293;-95
2022/07/17 00:10:28;;;;;;;;;;;;;;;17.69;60.54;100826.94;5099612;28;2305;-94
2022/07/17 00:12:55;;;;;;;;;;;;;;;17.69;60.52;100823.41;5100289;28;2303;-94
2022/07/17 00:15:21;;;;;;;;;;;;;;;17.67;60.28;100823.66;5098332;28;1258;-95
2022/07/17 00:17:48;;;;;;;;;;;;;;;17.66;60.35;100822.03;5105492;28;1727;-94
2022/07/17 00:20:14;;;;;;;;;;;;;;;17.66;60.33;100819.31;5118415;28;1277;-95
2022/07/17 00:22:42;;;;;;;;;;;;;;;17.64;60.38;100817.91;5116717;28;1914;-94
2022/07/17 00:25:09;;;;;;;;;;;;;;;17.64;60.31;100815.19;5102924;28;1894;-95
2022/07/17 00:27:36;;;;;;;;;;;;;;;17.62;60.71;100818.19;5097517;28;1615;-95
2022/07/17 00:30:02;;;;;;;;;;;;;;;17.60;60.37;100817.63;5098083;28;1189;-95
2022/07/17 00:32:29;;;;;;;;;;;;;;;17.60;60.46;100816.81;5097734;28;1312;-94
2022/07/17 00:34:55;;;;;;;;;;;;;;;17.59;60.61;100812.41;5097438;28;1484;-94
2022/07/17 00:37:22;;;;;;;;;;;;;;;17.58;60.58;100814.34;5099874;28;1840;-95
2022/07/17 00:39:48;;;;;;;;;;;;;;;17.57;60.70;100811.88;5114803;28;1865;-95
2022/07/17 00:42:15;;;;;;;;;;;;;;;17.57;60.42;100809.16;5108379;28;3367;-95
2022/07/17 00:44:42;;;;;;;;;;;;;;;17.56;60.58;100811.06;5109797;28;2006;-94
2022/07/17 00:47:08;;;;;;;;;;;;;;;17.54;60.50;100813.22;5115171;28;1649;-94
2022/07/17 00:49:38;;;;;;;;;;;;;;;17.53;60.49;100825.19;5117901;28;1174;-95
2022/07/17 00:52:04;;;;;;;;;;;;;;;17.54;60.29;100831.47;5117745;28;1282;-95
2022/07/17 00:54:31;;;;;;;;;;;;;;;17.51;60.45;100830.06;5104462;28;1971;-94
2022/07/17 00:56:57;;;;;;;;;;;;;;;17.51;60.54;100826.53;5099117;28;2179;-95
2022/07/17 00:59:24;;;;;;;;;;;;;;;17.50;60.57;100820.28;5102205;28;2055;-94
2022/07/17 01:01:50;;;;;;;;;;;;;;;17.48;60.47;100825.16;5103133;28;2234;-95
2022/07/17 01:04:17;;;;;;;;;;;;;;;17.47;60.42;100829.78;5106185;28;2566;-95
2022/07/17 01:06:43;;;;;;;;;;;;;;;17.47;60.35;100828.94;5102664;28;4825;-95
2022/07/17 01:09:10;;;;;;;;;;;;;;;17.45;60.38;100829.22;5107589;28;2281;-95
2022/07/17 01:11:36;;;;;;;;;;;;;;;17.45;60.45;100834.66;5102237;28;2217;-94
2022/07/17 01:14:03;;;;;;;;;;;;;;;17.44;60.37;100826.72;5116689;28;1284;-95
2022/07/17 01:16:30;;;;;;;;;;;;;;;17.43;60.34;100830.53;5106774;28;2020;-95
2022/07/17 01:18:56;;;;;;;;;;;;;;;17.43;60.45;100822.38;5103596;28;1969;-94
2022/07/17 01:21:23;;;;;;;;;;;;;;;17.41;60.50;100828.09;5102295;28;1975;-95
2022/07/17 01:23:49;;;;;;;;;;;;;;;17.41;60.17;100821.81;5107421;28;1944;-94
2022/07/17 01:26:16;;;;;;;;;;;;;;;17.38;60.48;100817.72;5111458;28;2293;-95
2022/07/17 01:28:42;;;;;;;;;;;;;;;17.39;60.29;100813.91;5099856;28;2233;-95
2022/07/17 01:31:09;;;;;;;;;;;;;;;17.37;60.28;100818.78;5116288;27;2193;-94
2022/07/17 01:33:36;;;;;;;;;;;;;;;17.37;60.36;100823.41;5111979;28;2425;-95
2022/07/17 01:36:02;;;;;;;;;;;;;;;17.36;60.46;100824.50;5104547;28;2063;-95
2022/07/17 01:38:29;;;;;;;;;;;;;;;17.35;60.32;100825.56;5119829;27;2220;-94
2022/07/17 01:40:55;;;;;;;;;;;;;;;17.35;60.40;100831.81;5105177;28;2150;-94
2022/07/17 01:43:22;;;;;;;;;;;;;;;17.33;60.38;100836.72;5100376;28;2230;-94
2022/07/17 01:45:48;;;;;;;;;;;;;;;17.33;60.32;100835.91;5109914;28;2004;-94
2022/07/17 01:48:15;;;;;;;;;;;;;;;17.32;60.33;100842.41;5104935;28;2165;-94
2022/07/17 01:50:41;;;;;;;;;;;;;;;17.30;60.38;100839.97;5095167;28;2261;-94
2022/07/17 01:53:08;;;;;;;;;;;;;;;17.31;60.11;100838.06;5095549;28;1979;-95
2022/07/17 01:55:34;;;;;;;;;;;;;;;17.30;60.18;100836.41;5099040;28;2283;-94
2022/07/17 01:58:01;;;;;;;;;;;;;;;17.28;60.29;100833.94;5079913;28;2055;-94
2022/07/17 02:00:28;;;;;;;;;;;;;;;17.27;60.19;100842.38;5085027;28;2019;-95
2022/07/17 02:02:55;;;;;;;;;;;;;;;17.26;60.03;100844.25;5088737;28;2261;-95
2022/07/17 02:05:21;;;;;;;;;;;;;;;17.25;60.22;100845.34;5093963;28;2283;-95
2022/07/17 02:07:48;;;;;;;;;;;;;;;17.24;60.15;100838.28;5088591;28;2226;-95
2022/07/17 02:10:14;;;;;;;;;;;;;;;17.23;60.18;100847.50;5085443;28;2003;-94
2022/07/17 02:12:41;;;;;;;;;;;;;;;17.23;60.19;100851.03;5083943;28;2226;-95
2022/07/17 02:15:08;;;;;;;;;;;;;;;17.22;60.09;100857.56;5095640;28;2421;-95
2022/07/17 02:17:35;;;;;;;;;;;;;;;17.22;60.30;100851.31;5077895;28;2135;-94
2022/07/17 02:20:01;;;;;;;;;;;;;;;17.20;60.20;100851.53;5088715;28;2301;-94
2022/07/17 02:22:28;;;;;;;;;;;;;;;17.20;60.02;100862.44;5088354;28;2269;-95
2022/07/17 02:24:54;;;;;;;;;;;;;;;17.20;60.03;100853.44;5086433;28;2103;-94
2022/07/17 02:27:21;;;;;;;;;;;;;;;17.19;60.08;100857.25;5080932;28;2320;-95
2022/07/17 02:29:47;;;;;;;;;;;;;;;17.17;60.04;100862.13;5084199;28;2219;-95
2022/07/17 02:32:14;;;;;;;;;;;;;;;17.17;60.08;100864.84;5079610;28;1952;-95
2022/07/17 02:34:41;;;;;;;;;;;;;;;17.16;60.06;100863.22;5076890;28;1785;-94
2022/07/17 02:37:07;;;;;;;;;;;;;;;17.14;60.16;100860.75;5080131;28;2408;-94
2022/07/17 02:39:34;;;;;;;;;;;;;;;17.14;60.01;100870.81;5090516;28;2177;-94
2022/07/17 02:42:00;;;;;;;;;;;;;;;17.14;59.98;100873.53;5083097;28;2329;-95
2022/07/17 02:44:27;;;;;;;;;;;;;;;17.13;60.04;100867.28;5074526;28;2226;-94
2022/07/17 02:46:53;;;;;;;;;;;;;;;17.12;60.06;100875.69;5075005;28;1195;-95
2022/07/17 02:49:20;;;;;;;;;;;;;;;17.10;60.01;100867.78;5073795;28;1862;-95
2022/07/17 02:51:47;;;;;;;;;;;;;;;17.10;59.87;100877.84;5074727;28;1310;-94
2022/07/17 02:54:13;;;;;;;;;;;;;;;17.08;60.01;100871.84;5075103;28;1941;-95
2022/07/17 02:56:40;;;;;;;;;;;;;;;17.08;59.83;100878.09;5103532;28;1774;-94
2022/07/17 02:59:06;;;;;;;;;;;;;;;17.08;60.13;100877.28;5096217;28;1889;-95
2022/07/17 03:01:33;;;;;;;;;;;;;;;17.05;60.01;100881.31;5113314;28;1977;-94
2022/07/17 03:03:59;;;;;;;;;;;;;;;17.03;59.95;100886.22;5115448;28;2236;-94
2022/07/17 03:06:26;;;;;;;;;;;;;;;17.01;59.95;100893.81;5108872;28;2076;-95
2022/07/17 03:08:52;;;;;;;;;;;;;;;16.99;60.00;100891.31;5101059;28;2111;-95
2022/07/17 03:11:19;;;;;;;;;;;;;;;16.98;59.98;100895.13;5096909;28;2293;-95
2022/07/17 03:13:45;;;;;;;;;;;;;;;16.97;60.10;100895.38;5103937;28;2557;-95
2022/07/17 03:16:12;;;;;;;;;;;;;;;16.95;60.10;100902.97;5105660;28;2129;-95
2022/07/17 03:18:39;;;;;;;;;;;;;;;16.94;60.14;100898.59;5102966;28;2417;-95
2022/07/17 03:21:05;;;;;;;;;;;;;;;16.93;60.03;100886.91;5096132;28;1948;-94
2022/07/17 03:23:32;;;;;;;;;;;;;;;16.93;60.06;100892.34;5103066;28;1942;-95
2022/07/17 03:25:58;;;;;;;;;;;;;;;16.93;60.04;100894.25;5098182;28;2000;-95
2022/07/17 03:28:25;;;;;;;;;;;;;;;16.92;60.00;100895.31;5101954;28;2233;-94
2022/07/17 03:30:51;;;;;;;;;;;;;;;16.91;59.99;100899.09;5106952;28;1961;-94
2022/07/17 03:33:18;;;;;;;;;;;;;;;16.89;60.05;100890.41;5094530;28;2290;-93
2022/07/17 03:35:44;;;;;;;;;;;;;;;16.90;60.02;100903.72;5106632;28;1978;-96
2022/07/17 03:38:11;;;;;;;;;;;;;;;16.89;59.97;100896.66;5121276;27;1887;-94
2022/07/17 03:40:37;;;;;;;;;;;;;;;16.88;60.04;100903.16;5108573;28;2126;-95
2022/07/17 03:43:04;;;;;;;;;;;;;;;16.88;59.99;100902.34;5102280;28;1973;-95
2022/07/17 03:45:30;;;;;;;;;;;;;;;16.88;60.08;100910.50;5096114;28;2238;-95
2022/07/17 03:47:57;;;;;;;;;;;;;;;16.86;60.03;100905.31;5097676;28;2312;-94
2022/07/17 03:50:24;;;;;;;;;;;;;;;16.86;60.06;100904.50;5103452;28;2230;-95
2022/07/17 03:52:50;;;;;;;;;;;;;;;16.85;59.95;100914.53;5106137;28;1971;-95
2022/07/17 03:55:17;;;;;;;;;;;;;;;16.85;59.96;100911.00;5101862;28;2054;-94
2022/07/17 03:57:43;;;;;;;;;;;;;;;16.83;59.94;100905.81;5108054;27;2270;-94
2022/07/17 04:00:10;;;;;;;;;;;;;;;16.83;59.98;100907.72;5104825;28;2354;-95
2022/07/17 04:02:36;;;;;;;;;;;;;;;16.82;59.97;100912.31;5103184;27;2296;-95
2022/07/17 04:05:03;;;;;;;;;;;;;;;16.81;59.84;100910.69;5111604;27;2368;-94
2022/07/17 04:07:30;;;;;;;;;;;;;;;16.81;59.87;100913.41;5107366;27;2043;-93
2022/07/17 04:09:56;;;;;;;;;;;;;;;16.80;59.84;100920.75;5110765;28;2010;-94
2022/07/17 04:12:23;;;;;;;;;;;;;;;16.78;59.93;100906.56;5110804;28;2224;-94
2022/07/17 04:14:50;;;;;;;;;;;;;;;16.79;59.87;100913.69;5107395;27;2137;-93
2022/07/17 04:17:17;;;;;;;;;;;;;;;16.79;59.91;100912.81;5112317;27;2296;-93
2022/07/17 04:19:44;;;;;;;;;;;;;;;16.79;59.85;100916.41;5105305;27;2292;-94
2022/07/17 04:22:11;;;;;;;;;;;;;;;16.78;59.85;100913.91;5116954;28;2198;-93
2022/07/17 04:24:37;;;;;;;;;;;;;;;16.78;59.84;100911.19;5110220;27;1892;-94
2022/07/17 04:27:04;;;;;;;;;;;;;;;16.77;59.74;100917.72;5106856;27;2416;-94
2022/07/17 04:29:30;;;;;;;;;;;;;;;16.76;59.82;100921.50;5110745;27;2280;-94
2022/07/17 04:31:57;;;;;;;;;;;;;;;16.75;59.81;100915.22;5107509;27;2258;-94
2022/07/17 04:34:24;;;;;;;;;;;;;;;16.74;59.79;100919.00;5108395;27;2237;-94
2022/07/17 04:36:50;;;;;;;;;;;;;;;16.73;59.77;100916.53;5098736;28;1981;-94
2022/07/17 04:39:17;;;;;;;;;;;;;;;16.74;59.72;100912.75;5126238;27;2204;-94
2022/07/17 04:41:44;;;;;;;;;;;;;;;16.73;59.83;100916.53;5115850;27;1882;-93
2022/07/17 04:44:10;;;;;;;;;;;;;;;16.72;59.75;100915.72;5107006;27;2379;-94
2022/07/17 04:46:37;;;;;;;;;;;;;;;16.72;59.75;100918.44;5111283;28;2285;-94
2022/07/17 04:49:03;;;;;;;;;;;;;;;16.71;59.70;100911.34;5110823;28;1968;-94
2022/07/17 04:51:30;;;;;;;;;;;;;;;16.70;59.71;100926.00;5100746;28;1183;-94
2022/07/17 04:53:56;;;;;;;;;;;;;;;16.71;59.80;100924.13;5105086;27;1943;-93
2022/07/17 04:56:23;;;;;;;;;;;;;;;16.69;59.70;100927.09;5121116;27;2252;-93
2022/07/17 04:58:49;;;;;;;;;;;;;;;16.69;59.70;100924.38;5107676;27;2256;-94
2022/07/17 05:01:16;;;;;;;;;;;;;;;16.69;59.80;100927.09;5103769;27;2317;-94
2022/07/17 05:03:42;;;;;;;;;;;;;;;16.68;59.69;100928.19;5120755;27;2248;-93
2022/07/17 05:06:09;;;;;;;;;;;;;;;16.68;59.72;100928.19;5117765;27;2157;-94
2022/07/17 05:08:35;;;;;;;;;;;;;;;16.67;59.73;100929.22;5113318;27;2100;-93
2022/07/17 05:11:02;;;;;;;;;;;;;;;16.66;59.70;100922.16;5120959;27;1179;-94
2022/07/17 05:13:28;;;;;;;;;;;;;;;16.67;59.61;100928.41;5120813;27;1341;-93
2022/07/17 05:15:55;;;;;;;;;;;;;;;16.67;59.65;100922.97;5124036;27;1208;-93
2022/07/17 05:18:22;;;;;;;;;;;;;;;16.67;59.79;100939.28;5124287;27;1844;-93
2022/07/17 05:20:48;;;;;;;;;;;;;;;16.67;59.56;100933.84;5109690;28;1964;-93
2022/07/17 05:23:15;;;;;;;;;;;;;;;16.66;59.58;100937.66;5100554;28;1921;-93
2022/07/17 05:25:41;;;;;;;;;;;;;;;16.66;59.54;100940.38;5100310;28;1186;-94
2022/07/17 05:28:08;;;;;;;;;;;;;;;16.65;59.56;100945.00;5107285;27;1204;-94
2022/07/17 05:30:35;;;;;;;;;;;;;;;16.65;59.45;100938.72;5106841;27;2066;-94
2022/07/17 05:33:01;;;;;;;;;;;;;;;16.66;59.47;100940.38;5112208;27;1387;-92
2022/07/17 05:35:28;;;;;;;;;;;;;;;16.64;59.54;100942.50;5100289;28;1325;-94
2022/07/17 05:37:54;;;;;;;;;;;;;;;16.64;59.49;100943.34;5099798;27;1801;-94
2022/07/17 05:40:21;;;;;;;;;;;;;;;16.63;59.47;100947.13;5103279;28;2320;-94
2022/07/17 05:42:48;;;;;;;;;;;;;;;16.62;59.48;100945.50;5103393;27;3540;-94
2022/07/17 05:45:14;;;;;;;;;;;;;;;16.62;59.50;100945.50;5109118;28;1271;-94
2022/07/17 05:47:41;;;;;;;;;;;;;;;16.61;59.43;100943.84;5109186;27;2014;-93
2022/07/17 05:50:07;;;;;;;;;;;;;;;16.61;59.51;100951.16;5128293;27;2172;-94
2022/07/17 05:52:34;;;;;;;;;;;;;;;16.61;59.36;100946.56;5113686;27;1996;-93
2022/07/17 05:55:00;;;;;;;;;;;;;;;16.60;59.52;100949.53;5118765;27;2256;-94
2022/07/17 05:57:27;;;;;;;;;;;;;;;16.61;59.42;100948.44;5105016;28;1347;-94
2022/07/17 05:59:53;;;;;;;;;;;;;;;16.60;59.49;100955.78;5099145;28;1835;-93
2022/07/17 06:02:20;;;;;;;;;;;;;;;16.60;59.47;100949.53;5099589;28;1917;-94
2022/07/17 06:04:46;;;;;;;;;;;;;;;16.61;59.58;100956.59;5128330;27;4801;-94
2022/07/17 06:07:13;;;;;;;;;;;;;;;16.59;59.46;100956.88;5119040;27;1921;-94
2022/07/17 06:09:40;;;;;;;;;;;;;;;16.58;59.41;100950.59;5117889;27;1755;-93
2022/07/17 06:12:06;;;;;;;;;;;;;;;16.59;59.39;100965.03;5119091;27;1218;-94
2022/07/17 06:14:33;;;;;;;;;;;;;;;16.58;59.42;100963.38;5118437;27;1307;-94
2022/07/17 06:16:59;;;;;;;;;;;;;;;16.58;59.34;100964.19;5104995;27;1995;-95
2022/07/17 06:19:26;;;;;;;;;;;;;;;16.56;59.29;100958.19;5118836;27;1353;-94
2022/07/17 06:21:52;;;;;;;;;;;;;;;16.56;59.38;100960.09;5119831;27;1267;-94
2022/07/17 06:24:19;;;;;;;;;;;;;;;16.58;59.37;100958.75;5126943;27;1910;-94
2022/07/17 06:26:45;;;;;;;;;;;;;;;16.57;59.38;100959.00;5102390;27;1234;-94
2022/07/17 06:29:12;;;;;;;;;;;;;;;16.57;59.30;100956.28;5117709;27;1932;-94
2022/07/17 06:31:38;;;;;;;;;;;;;;;16.57;59.28;100950.84;5102533;28;1219;-93
2022/07/17 06:34:05;;;;;;;;;;;;;;;16.56;59.23;100952.75;5099984;27;2720;-94
2022/07/17 06:36:32;;;;;;;;;;;;;;;16.56;59.24;100941.06;5114504;27;1449;-93
2022/07/17 06:38:58;;;;;;;;;;;;;;;16.56;59.18;100938.34;5117242;27;1880;-94
2022/07/17 06:41:25;;;;;;;;;;;;;;;16.58;59.21;100941.63;5116543;27;2066;-93
2022/07/17 06:43:51;;;;;;;;;;;;;;;16.55;59.17;100937.50;5107957;28;2292;-94
2022/07/17 06:46:18;;;;;;;;;;;;;;;16.56;59.35;100932.91;5104218;27;1861;-93
2022/07/17 06:48:45;;;;;;;;;;;;;;;16.56;59.34;100939.16;5098834;28;2249;-93
2022/07/17 06:51:11;;;;;;;;;;;;;;;16.55;59.24;100939.41;5105413;27;2234;-94
2022/07/17 06:53:38;;;;;;;;;;;;;;;16.55;59.21;100944.84;5100120;28;2241;-94
2022/07/17 06:56:04;;;;;;;;;;;;;;;16.54;59.23;100946.75;5105428;28;2084;-94
2022/07/17 06:58:31;;;;;;;;;;;;;;;16.54;59.37;100943.19;5098930;28;1619;-94
2022/07/17 07:00:59;;;;;;;;;;;;;;;16.55;59.21;100951.09;5098370;28;1526;-93
2022/07/17 07:03:25;;;;;;;;;;;;;;;16.55;59.17;100945.66;5102775;28;1978;-93
2022/07/17 07:05:52;;;;;;;;;;;;;;;16.55;59.23;100956.53;5102528;27;1963;-94
2022/07/17 07:08:19;;;;;;;;;;;;;;;16.57;59.18;100950.84;5109550;27;2209;-94
2022/07/17 07:10:45;;;;;;;;;;;;;;;16.57;59.13;100956.28;5103321;27;2343;-94
2022/07/17 07:13:12;;;;;;;;;;;;;;;16.55;59.13;100961.97;5109686;27;2008;-94
2022/07/17 07:15:38;;;;;;;;;;;;;;;16.55;59.07;100961.16;5113064;28;1927;-93
2022/07/17 07:18:05;;;;;;;;;;;;;;;16.56;59.13;100963.63;5102760;28;2241;-93
2022/07/17 07:20:32;;;;;;;;;;;;;;;16.55;59.16;100958.44;5101289;27;2378;-94
2022/07/17 07:22:58;;;;;;;;;;;;;;;16.55;59.07;100961.97;5099098;28;2217;-94
2022/07/17 07:25:25;;;;;;;;;;;;;;;16.55;59.11;100964.69;5100328;27;1792;-93
2022/07/17 07:27:51;;;;;;;;;;;;;;;16.56;59.09;100966.34;5100627;28;1980;-95
2022/07/17 07:30:18;;;;;;;;;;;;;;;16.56;59.09;100963.63;5100204;28;2290;-95
2022/07/17 07:32:44;;;;;;;;;;;;;;;16.58;59.12;100963.38;5097757;28;1420;-95
2022/07/17 07:35:11;;;;;;;;;;;;;;;16.56;59.06;100965.53;5105462;28;2077;-94
2022/07/17 07:37:38;;;;;;;;;;;;;;;16.56;59.03;100971.78;5115934;27;1978;-95
2022/07/17 07:40:04;;;;;;;;;;;;;;;16.57;59.00;100973.44;5118405;27;1308;-95
2022/07/17 07:42:31;;;;;;;;;;;;;;;16.56;59.10;100963.63;5103609;27;1405;-94
2022/07/17 07:44:58;;;;;;;;;;;;;;;16.57;59.06;100970.69;5117976;28;1967;-96
2022/07/17 07:47:24;;;;;;;;;;;;;;;16.58;59.00;100979.69;5097806;28;1360;-96
2022/07/17 07:49:51;;;;;;;;;;;;;;;16.56;59.09;100979.94;5099566;28;2457;-95
2022/07/17 07:52:18;;;;;;;;;;;;;;;16.59;59.04;100984.06;5113392;28;2233;-94
2022/07/17 07:54:44;;;;;;;;;;;;;;;16.57;59.09;100981.59;5110060;28;2284;-95
2022/07/17 07:57:11;;;;;;;;;;;;;;;16.57;59.00;100989.75;5106104;28;2213;-95
2022/07/17 07:59:38;;;;;;;;;;;;;;;16.59;58.95;100984.06;5112382;28;2081;-95
2022/07/17 08:02:04;;;;;;;;;;;;;;;16.58;58.95;100985.94;5111403;28;2245;-94
2022/07/17 08:04:31;;;;;;;;;;;;;;;16.58;59.02;100980.50;5104737;28;2025;-95
2022/07/17 08:06:58;;;;;;;;;;;;;;;16.58;59.04;100975.06;5107136;28;2397;-94
2022/07/17 08:09:24;;;;;;;;;;;;;;;16.59;59.04;100978.63;5107372;28;2147;-96
2022/07/17 08:11:51;;;;;;;;;;;;;;;16.61;59.02;100981.91;5111402;28;2229;-95
2022/07/17 08:14:17;;;;;;;;;;;;;;;16.61;58.96;100983.81;5110742;28;2599;-95
2022/07/17 08:16:44;;;;;;;;;;;;;;;16.62;58.92;100980.00;5111820;28;1866;-95
2022/07/17 08:19:11;;;;;;;;;;;;;;;16.61;59.02;100987.34;5101697;28;2325;-96
2022/07/17 08:21:37;;;;;;;;;;;;;;;16.62;58.79;100980.00;5109838;28;2020;-95
2022/07/17 08:24:04;;;;;;;;;;;;;;;16.62;58.92;100977.28;5103825;28;2344;-95
2022/07/17 08:26:30;;;;;;;;;;;;;;;16.62;58.84;100972.69;5113201;28;1226;-95
2022/07/17 08:28:57;;;;;;;;;;;;;;;16.61;58.92;100973.75;5097802;28;1315;-94
2022/07/17 08:31:23;;;;;;;;;;;;;;;16.61;59.02;100973.75;5104362;28;2288;-96
2022/07/17 08:33:50;;;;;;;;;;;;;;;16.63;58.92;100977.03;5102234;27;3335;-95
2022/07/17 08:36:16;;;;;;;;;;;;;;;16.64;58.95;100972.44;5105073;28;2272;-94
2022/07/17 08:38:43;;;;;;;;;;;;;;;16.64;58.92;100970.53;5104771;28;1856;-95
2022/07/17 08:41:10;;;;;;;;;;;;;;;16.65;58.85;100968.63;5104599;28;2311;-95
2022/07/17 08:43:37;;;;;;;;;;;;;;;16.63;58.88;100968.88;5106978;27;2268;-96
2022/07/17 08:46:03;;;;;;;;;;;;;;;16.64;58.85;100967.00;5106182;28;2221;-94
2022/07/17 08:48:30;;;;;;;;;;;;;;;16.63;58.93;100977.03;5114073;27;2132;-96
2022/07/17 08:50:57;;;;;;;;;;;;;;;16.65;58.83;100980.34;5112459;27;2222;-95
2022/07/17 08:53:23;;;;;;;;;;;;;;;16.65;58.91;100983.06;5116608;28;1800;-95
2022/07/17 08:55:50;;;;;;;;;;;;;;;16.66;58.98;100973.00;5105883;27;1793;-95
2022/07/17 08:58:16;;;;;;;;;;;;;;;16.66;58.90;100973.00;5121083;27;1195;-95
2022/07/17 09:00:43;;;;;;;;;;;;;;;16.66;59.18;100959.41;5107682;27;1340;-94
2022/07/17 09:03:10;;;;;;;;;;;;;;;16.66;59.02;100959.41;5120944;27;1905;-94
2022/07/17 09:05:37;;;;;;;;;;;;;;;16.67;58.87;100958.31;5111553;27;2861;-95
2022/07/17 09:08:04;;;;;;;;;;;;;;;16.67;59.02;100972.75;5117778;27;1869;-95
2022/07/17 09:10:30;;;;;;;;;;;;;;;16.68;59.07;100962.72;5114858;28;1794;-95
2022/07/17 09:12:57;;;;;;;;;;;;;;;16.67;59.06;100980.09;5100211;28;2412;-95
2022/07/17 09:15:23;;;;;;;;;;;;;;;16.68;58.99;100976.31;5107692;27;2265;-96
2022/07/17 09:17:50;;;;;;;;;;;;;;;16.69;58.92;100976.03;5119004;27;2389;-95
2022/07/17 09:20:16;;;;;;;;;;;;;;;16.68;58.99;100971.69;5125865;27;2016;-96
2022/07/17 09:22:44;;;;;;;;;;;;;;;16.69;59.06;100962.44;5131818;27;1887;-96
2022/07/17 09:25:10;;;;;;;;;;;;;;;16.70;59.00;100963.25;5103694;27;2024;-96
2022/07/17 09:27:38;;;;;;;;;;;;;;;16.71;58.96;100968.47;5115188;27;2249;-94
2022/07/17 09:30:04;;;;;;;;;;;;;;;16.71;59.00;100967.66;5104391;27;2276;-92
2022/07/17 09:32:31;;;;;;;;;;;;;;;16.71;59.09;100965.75;5112379;28;2012;-94
2022/07/17 09:34:58;;;;;;;;;;;;;;;16.72;59.05;100963.84;5117203;27;1695;-96
2022/07/17 09:37:24;;;;;;;;;;;;;;;16.73;59.15;100969.03;5111953;27;1968;-95
2022/07/17 09:39:51;;;;;;;;;;;;;;;16.73;59.08;100960.03;5120708;27;1308;-95
2022/07/17 09:42:18;;;;;;;;;;;;;;;16.74;59.08;100959.81;5110772;27;2237;-95
2022/07/17 09:44:44;;;;;;;;;;;;;;;16.75;59.02;100961.44;5118745;28;1984;-95
2022/07/17 09:47:11;;;;;;;;;;;;;;;16.74;58.98;100956.28;5101867;27;2163;-94
2022/07/17 09:49:37;;;;;;;;;;;;;;;16.75;59.16;100956.00;5099915;28;1309;-95
2022/07/17 09:52:04;;;;;;;;;;;;;;;16.75;59.03;100957.91;5099849;28;1751;-94
2022/07/17 09:54:31;;;;;;;;;;;;;;;16.77;59.11;100963.97;5099628;28;1260;-95
2022/07/17 09:56:57;;;;;;;;;;;;;;;16.78;59.03;100963.69;5100310;28;1353;-95
2022/07/17 09:59:24;;;;;;;;;;;;;;;16.78;59.07;100965.59;5103741;27;2031;-95
2022/07/17 10:01:50;;;;;;;;;;;;;;;16.78;59.12;100960.97;5114332;27;1404;-95
2022/07/17 10:04:17;;;;;;;;;;;;;;;16.79;59.08;100964.50;5105229;28;2135;-95
2022/07/17 10:06:44;;;;;;;;;;;;;;;16.79;59.05;100959.91;5103483;27;1808;-94
2022/07/17 10:09:10;;;;;;;;;;;;;;;16.82;59.13;100963.19;5119416;27;1254;-95
2022/07/17 10:11:37;;;;;;;;;;;;;;;16.82;59.21;100963.19;5119779;27;1270;-95
2022/07/17 10:14:04;;;;;;;;;;;;;;;16.84;59.08;100970.03;5115110;28;1193;-95
2022/07/17 10:16:30;;;;;;;;;;;;;;;16.82;59.15;100964.00;5109247;27;1315;-95
2022/07/17 10:18:57;;;;;;;;;;;;;;;16.83;59.18;100964.84;5103842;28;1307;-95
2022/07/17 10:21:24;;;;;;;;;;;;;;;16.84;59.25;100964.59;5099393;28;1302;-94
2022/07/17 10:23:50;;;;;;;;;;;;;;;16.84;59.17;100963.75;5101153;27;2142;-95
2022/07/17 10:26:17;;;;;;;;;;;;;;;16.85;59.29;100957.25;5119573;27;1333;-96
2022/07/17 10:28:43;;;;;;;;;;;;;;;16.86;59.18;100948.84;5099023;28;1616;-95
2022/07/17 10:31:10;;;;;;;;;;;;;;;16.85;59.16;100955.34;5110511;28;1765;-94
2022/07/17 10:33:37;;;;;;;;;;;;;;;16.87;59.24;100960.53;5111897;27;1693;-95
2022/07/17 10:36:03;;;;;;;;;;;;;;;16.88;59.17;100952.13;5119152;27;1318;-95
2022/07/17 10:38:30;;;;;;;;;;;;;;;16.88;59.19;100943.97;5104557;28;1631;-95
2022/07/17 10:40:56;;;;;;;;;;;;;;;16.89;59.25;100940.19;5098754;28;1179;-95
2022/07/17 10:43:23;;;;;;;;;;;;;;;16.89;59.10;100944.81;5104693;27;3440;-95
2022/07/17 10:45:49;;;;;;;;;;;;;;;16.90;59.14;100943.72;5114434;27;4495;-95
2022/07/17 10:48:16;;;;;;;;;;;;;;;16.90;59.20;100949.97;5102350;27;2001;-95
2022/07/17 10:50:42;;;;;;;;;;;;;;;16.92;59.24;100955.19;5097984;28;1902;-94
2022/07/17 10:53:09;;;;;;;;;;;;;;;16.92;59.22;100955.19;5104919;28;1888;-95
2022/07/17 10:55:35;;;;;;;;;;;;;;;16.93;59.33;100952.19;5098107;28;1346;-95
2022/07/17 10:58:02;;;;;;;;;;;;;;;16.93;59.30;100954.09;5116907;27;1286;-96
2022/07/17 11:00:29;;;;;;;;;;;;;;;16.94;59.24;100964.75;5110759;27;1332;-94
2022/07/17 11:02:55;;;;;;;;;;;;;;;16.96;59.20;100961.75;5103380;28;1377;-95
2022/07/17 11:05:22;;;;;;;;;;;;;;;16.97;59.25;100960.66;5098387;28;2136;-95
2022/07/17 11:07:48;;;;;;;;;;;;;;;16.97;59.42;100958.78;5098899;28;1869;-95
2022/07/17 11:10:15;;;;;;;;;;;;;;;16.98;59.29;100960.44;5098863;28;1163;-95
2022/07/17 11:12:42;;;;;;;;;;;;;;;16.99;59.34;100950.38;5098398;28;1403;-94
2022/07/17 11:15:08;;;;;;;;;;;;;;;17.00;59.40;100952.00;5103532;27;1743;-94
2022/07/17 11:17:35;;;;;;;;;;;;;;;17.01;59.37;100957.19;5110240;27;2790;-95
2022/07/17 11:20:02;;;;;;;;;;;;;;;17.03;59.40;100959.69;5117009;27;1926;-95
2022/07/17 11:22:28;;;;;;;;;;;;;;;17.04;59.48;100958.59;5116507;27;1924;-95
2022/07/17 11:24:55;;;;;;;;;;;;;;;17.04;59.34;100947.72;5118194;28;2315;-95
2022/07/17 11:27:22;;;;;;;;;;;;;;;17.05;59.44;100948.53;5116619;27;1166;-95
2022/07/17 11:29:48;;;;;;;;;;;;;;;17.07;59.48;100954.56;5115470;28;1308;-95
2022/07/17 11:32:15;;;;;;;;;;;;;;;17.07;59.49;100951.81;5101111;28;1193;-96
2022/07/17 11:34:41;;;;;;;;;;;;;;;17.08;59.35;100948.84;5097091;28;1770;-95
2022/07/17 11:37:08;;;;;;;;;;;;;;;17.10;59.38;100948.59;5115631;28;2405;-96
2022/07/17 11:39:34;;;;;;;;;;;;;;;17.12;59.52;100946.44;5102997;28;1686;-94
2022/07/17 11:42:01;;;;;;;;;;;;;;;17.12;59.41;100938.25;5118623;28;1300;-94
2022/07/17 11:44:28;;;;;;;;;;;;;;;17.11;59.55;100937.44;5118470;27;1906;-95
2022/07/17 11:46:54;;;;;;;;;;;;;;;17.13;59.35;100948.09;5110400;28;2117;-96
2022/07/17 11:49:21;;;;;;;;;;;;;;;17.14;59.58;100952.44;5096553;28;2094;-95
2022/07/17 11:51:47;;;;;;;;;;;;;;;17.44;58.03;100949.25;5098374;28;2012;-96
2022/07/17 11:54:14;;;;;;;;;;;;;;;17.49;58.33;100954.75;5118878;28;1485;-95
2022/07/17 11:56:40;;;;;;;;;;;;;;;17.37;58.73;100946.72;5106174;28;1914;-95
2022/07/17 11:59:07;;;;;;;;;;;;;;;17.31;58.66;100947.75;5097594;28;1190;-94
2022/07/17 12:01:33;;;;;;;;;;;;;;;17.30;58.62;100948.03;5103550;28;1417;-94
2022/07/17 12:04:00;;;;;;;;;;;;;;;17.28;58.75;100945.53;5107098;28;1981;-96
2022/07/17 12:06:27;;;;;;;;;;;;;;;17.28;58.85;100948.25;5118876;28;2373;-96
2022/07/17 12:08:54;;;;;;;;;;;;;;;17.29;58.88;100949.09;5117815;27;1644;-95
2022/07/17 12:11:20;;;;;;;;;;;;;;;17.28;58.97;100937.38;5101778;28;1301;-94
2022/07/17 12:13:47;;;;;;;;;;;;;;;17.31;58.95;100938.78;5104327;27;1988;-94
2022/07/17 12:16:13;;;;;;;;;;;;;;;17.31;58.88;100922.44;5119713;27;1776;-94
2022/07/17 12:18:40;;;;;;;;;;;;;;;17.32;59.09;100924.88;5121985;27;1288;-94
2022/07/17 12:21:06;;;;;;;;;;;;;;;17.33;59.05;100933.91;5122025;27;1270;-94
2022/07/17 12:23:33;;;;;;;;;;;;;;;17.34;59.22;100924.66;5121917;27;1171;-94
2022/07/17 12:25:59;;;;;;;;;;;;;;;17.35;59.12;100918.94;5112243;28;2242;-95
2022/07/17 12:28:26;;;;;;;;;;;;;;;17.36;58.93;100914.34;5101464;28;1207;-94
2022/07/17 12:30:52;;;;;;;;;;;;;;;17.37;59.07;100916.78;5107081;27;1264;-94
2022/07/17 12:33:19;;;;;;;;;;;;;;;17.38;59.07;100913.00;5122142;27;1304;-94
2022/07/17 12:35:46;;;;;;;;;;;;;;;17.39;59.19;100905.66;5119507;27;2696;-94
2022/07/17 12:38:13;;;;;;;;;;;;;;;17.39;59.28;100894.75;5121668;27;1340;-94
2022/07/17 12:40:39;;;;;;;;;;;;;;;17.41;59.21;100906.19;5121653;27;1433;-95
2022/07/17 12:43:06;;;;;;;;;;;;;;;17.42;59.09;100902.41;5121462;27;1306;-94